Redmond, Oregon
Current Conditions -  °F | °C
As of 12:56 AM on Friday 24 Oct 2014 (Local Time) from KRDM Reporting Station
Overcast Overcast  
Wind Chill:   Ceiling: 7500
Heat Index:   Visibility: 10mi
Dew Point:   Wind: 7mph
Humidity: 80%   Direction: 170°S
Pressure: 30.02"   Gusts: NA
Location:  44.27°N, 121.17°W
Report Text: KRDM 240756Z AUTO 17006KT 10SM OVC075 08/05 A3002 RMK AO2 SLP163 T00830050 401280061
Loading
Personal Weather Stations






























Interactive Weather Map New forecast layout! Learn more

10-Day Weather Forecast

Advertisements
Track Severe Weather on mobile